Time;durP1;ratioP1;P1;durP2;ratioP2;P2;SDS_P1;SDS_P2;PMS_P1;PMS_P2;Temp;Humidity;BMP_temperature;BMP_pressure;BME280_temperature;BME280_humidity;BME280_pressure;Samples;Min_cycle;Max_cycle;Signal;HPM_P1;HPM_P2
2022/02/07 00:01:30;;;;;;;10.38;5.65;;;;;;;2.19;69.91;96375.84;1812294;79;20862;-67
2022/02/07 00:03:55;;;;;;;8.43;5.67;;;;;;;2.21;69.73;96368.45;1812429;78;21778;-65
2022/02/07 00:06:18;;;;;;;6.50;4.87;;;;;;;2.24;69.67;96361.83;1813027;78;20980;-68
2022/02/07 00:08:46;;;;;;;9.18;4.90;;;;;;;2.25;69.50;96358.91;1818320;78;20957;-68
2022/02/07 00:11:15;;;;;;;9.75;4.30;;;;;;;2.28;69.43;96353.07;1822229;78;20845;-68
2022/02/07 00:13:43;;;;;;;7.92;4.35;;;;;;;2.29;69.18;96345.38;1822888;78;20877;-58
2022/02/07 00:16:16;;;;;;;11.08;5.05;;;;;;;2.30;68.96;96342.22;1822137;78;20989;-62
2022/02/07 00:18:44;;;;;;;14.05;5.42;;;;;;;2.32;68.93;96340.88;1822085;78;20834;-65
2022/02/07 00:21:12;;;;;;;9.33;4.95;;;;;;;2.33;68.89;96331.87;1822131;78;20850;-68
2022/02/07 00:23:39;;;;;;;11.03;6.30;;;;;;;2.34;68.83;96336.09;1822189;78;21420;-68
2022/02/07 00:26:06;;;;;;;13.48;5.67;;;;;;;2.34;68.82;96329.50;1822231;78;20914;-66
2022/02/07 00:28:33;;;;;;;9.08;5.08;;;;;;;2.36;68.79;96331.84;1822225;78;21080;-65
2022/02/07 00:31:01;;;;;;;10.50;5.15;;;;;;;2.38;68.69;96331.83;1822159;78;20834;-67
2022/02/07 00:33:28;;;;;;;10.63;5.42;;;;;;;2.39;68.58;96324.17;1822189;78;20913;-67
2022/02/07 00:35:54;;;;;;;7.87;4.83;;;;;;;2.41;68.38;96312.78;1822189;78;21472;-65
2022/02/07 00:38:22;;;;;;;12.98;6.17;;;;;;;2.42;68.21;96309.09;1822437;78;20885;-64
2022/02/07 00:45:54;;;;;;;8.55;4.80;;;;;;;2.45;68.38;96299.26;1822204;78;20869;-62
2022/02/07 00:48:23;;;;;;;10.30;5.12;;;;;;;2.47;68.41;96289.20;1821582;78;20944;-67
2022/02/07 00:50:55;;;;;;;10.63;6.35;;;;;;;2.49;68.39;96285.77;1822147;78;20914;-68
2022/02/07 00:53:21;;;;;;;9.15;5.35;;;;;;;2.50;68.46;96270.67;1822400;78;21072;-68
2022/02/07 00:55:49;;;;;;;9.93;5.85;;;;;;;2.50;68.46;96266.17;1822027;78;20913;-62
2022/02/07 00:58:15;;;;;;;9.93;5.60;;;;;;;2.52;68.55;96264.04;1822474;78;20917;-66
2022/02/07 01:00:42;;;;;;;9.85;4.92;;;;;;;2.54;68.62;96259.25;1822172;78;21464;-66
2022/02/07 01:03:09;;;;;;;7.92;5.70;;;;;;;2.56;68.66;96253.18;1822401;78;20897;-67
2022/02/07 01:05:36;;;;;;;9.73;4.90;;;;;;;2.59;68.69;96250.52;1822077;78;21160;-66
2022/02/07 01:08:05;;;;;;;9.98;4.10;;;;;;;2.59;68.86;96238.06;1821435;78;21489;-64
2022/02/07 01:18:49;;;;;;;8.70;4.90;;;;;;;2.66;69.01;96216.04;1819639;78;21889;-68
2022/02/07 01:21:51;;;;;;;10.20;4.92;;;;;;;2.68;68.96;96210.48;1794941;78;21385;-70
2022/02/07 01:46:22;;;;;;;9.85;5.55;;;;;;;2.78;69.38;96175.97;1822471;78;21075;-62
2022/02/07 01:54:07;;;;;;;8.75;5.53;;;;;;;2.82;69.82;96157.17;1779130;78;20952;-64
2022/02/07 01:56:15;;;;;;;9.38;6.25;;;;;;;2.83;70.07;96147.39;1818356;78;20933;-66
2022/02/07 01:58:43;;;;;;;6.83;4.30;;;;;;;2.84;70.27;96142.33;1821963;78;21067;-63
2022/02/07 02:01:11;;;;;;;7.17;4.80;;;;;;;2.86;70.46;96137.54;1822291;78;20834;-67
2022/02/07 02:03:38;;;;;;;7.85;5.10;;;;;;;2.88;70.70;96138.03;1822161;78;20917;-64
2022/02/07 02:06:07;;;;;;;8.13;5.20;;;;;;;2.91;70.96;96147.52;1822272;78;20937;-63
2022/02/07 02:08:34;;;;;;;11.00;6.03;;;;;;;2.93;71.29;96136.65;1821375;78;21325;-68
2022/02/07 02:11:02;;;;;;;8.88;5.80;;;;;;;2.93;71.64;96136.65;1822263;78;21863;-66
2022/02/07 02:13:49;;;;;;;9.40;5.10;;;;;;;2.95;71.73;96121.27;1822097;78;21341;-69
2022/02/07 02:16:20;;;;;;;6.40;4.28;;;;;;;2.98;71.91;96132.09;1819800;78;21514;-65
2022/02/07 02:37:45;;;;;;;6.22;4.42;;;;;;;3.10;71.88;96109.16;1749262;82;21101;-68
2022/02/07 02:45:40;;;;;;;;;;;;;;;3.03;72.23;96118.00;1824957;78;20909;-65
2022/02/07 02:48:35;;;;;;;8.43;4.53;;;;;;;3.00;72.45;96114.06;1821348;78;20070;-61
2022/02/07 02:50:41;;;;;;;6.80;4.25;;;;;;;2.99;72.55;96123.06;1809012;78;21109;-65
2022/02/07 02:53:12;;;;;;;5.80;4.00;;;;;;;3.00;72.67;96123.85;1822304;78;20968;-60
2022/02/07 02:55:43;;;;;;;5.30;3.72;;;;;;;3.02;72.75;96125.14;1822648;78;20913;-69
2022/02/07 02:58:12;;;;;;;7.47;4.22;;;;;;;3.05;72.75;96129.08;1822631;78;20914;-65
2022/02/07 03:00:43;;;;;;;6.85;3.92;;;;;;;3.08;72.63;96124.54;1822343;78;21412;-62
2022/02/07 03:03:13;;;;;;;6.03;3.77;;;;;;;3.11;72.51;96125.30;1820702;78;20869;-68
2022/02/07 03:05:43;;;;;;;7.90;3.90;;;;;;;3.13;72.16;96117.86;1822236;78;21444;-63
2022/02/07 03:08:12;;;;;;;7.15;4.78;;;;;;;3.14;71.90;96108.83;1822583;78;20913;-65
2022/02/07 03:11:00;;;;;;;6.90;4.28;;;;;;;3.13;71.80;96109.36;1813410;78;21028;-62
2022/02/07 03:18:36;;;;;;;6.80;4.47;;;;;;;3.08;71.48;96104.70;1813853;78;21433;-69
2022/02/07 03:21:05;;;;;;;7.37;4.58;;;;;;;3.06;71.48;96107.61;1813656;79;20926;-62
2022/02/07 03:23:32;;;;;;;8.48;4.70;;;;;;;3.04;71.47;96112.41;1813638;79;20862;-67
2022/02/07 03:25:59;;;;;;;8.05;4.50;;;;;;;3.02;71.25;96113.77;1813869;79;20968;-62
2022/02/07 03:28:29;;;;;;;10.45;4.40;;;;;;;3.03;71.35;96111.39;1813820;79;21044;-65
2022/02/07 03:30:56;;;;;;;6.05;4.37;;;;;;;3.02;71.31;96105.83;1793065;79;20957;-65
2022/02/07 03:33:23;;;;;;;7.25;4.62;;;;;;;3.00;71.27;96097.41;1793273;79;21309;-61
2022/02/07 03:35:50;;;;;;;7.67;4.65;;;;;;;2.99;71.33;96102.46;1813527;79;21433;-64
2022/02/07 03:38:19;;;;;;;6.45;4.05;;;;;;;2.97;71.30;96101.97;1813559;79;20918;-68
2022/02/07 03:40:45;;;;;;;8.10;4.10;;;;;;;2.95;71.38;96105.41;1813533;79;21121;-64
2022/02/07 03:43:12;;;;;;;7.67;4.53;;;;;;;2.96;71.37;96104.35;1813470;79;20870;-67
2022/02/07 03:45:39;;;;;;;7.65;4.20;;;;;;;2.95;71.47;96102.23;1813618;79;20874;-67
2022/02/07 03:48:08;;;;;;;5.90;4.12;;;;;;;2.96;71.50;96103.03;1813194;78;20890;-62
2022/02/07 03:50:36;;;;;;;8.28;4.42;;;;;;;2.96;71.58;96107.00;1813641;79;20941;-65
2022/02/07 03:53:03;;;;;;;7.33;4.10;;;;;;;2.98;71.62;96106.95;1813925;79;21068;-65
2022/02/07 03:55:32;;;;;;;5.95;4.20;;;;;;;3.01;71.68;96110.36;1813544;79;20854;-63
2022/02/07 03:58:00;;;;;;;7.05;4.58;;;;;;;3.06;71.73;96112.91;1813541;78;21246;-65
2022/02/07 04:00:27;;;;;;;6.70;4.30;;;;;;;3.10;71.69;96101.23;1813616;79;21001;-65
2022/02/07 04:02:58;;;;;;;4.78;3.67;;;;;;;3.11;71.68;96103.58;1811863;78;20890;-62
2022/02/07 04:08:00;;;;;;;6.08;4.25;;;;;;;3.15;71.53;96104.59;1813541;79;20886;-68
2022/02/07 04:10:33;;;;;;;5.28;3.90;;;;;;;3.16;71.50;96113.29;1813455;78;20960;-63
2022/02/07 04:13:00;;;;;;;5.22;4.03;;;;;;;3.15;71.59;96105.13;1813115;79;21507;-63
2022/02/07 04:15:25;;;;;;;5.60;4.20;;;;;;;3.13;71.59;96105.95;1813597;78;20913;-65
2022/02/07 04:18:00;;;;;;;5.28;4.12;;;;;;;3.10;71.69;96108.63;1813820;79;21354;-66
2022/02/07 04:20:21;;;;;;;5.42;4.08;;;;;;;3.10;71.87;96113.13;1812178;78;20948;-62
2022/02/07 04:22:49;;;;;;;9.93;4.33;;;;;;;3.08;72.08;96120.58;1813984;78;20972;-65
2022/02/07 04:25:20;;;;;;;7.65;3.87;;;;;;;3.07;72.23;96117.66;1774938;79;20851;-67
2022/02/07 04:27:49;;;;;;;6.37;3.87;;;;;;;3.10;72.43;96126.36;1809325;78;20894;-68
2022/02/07 04:30:17;;;;;;;7.30;3.83;;;;;;;3.11;72.54;96117.36;1813330;78;21120;-63
2022/02/07 04:32:44;;;;;;;5.65;3.60;;;;;;;3.15;72.59;96111.73;1813432;79;21377;-65
2022/02/07 04:35:12;;;;;;;4.35;3.62;;;;;;;3.20;72.68;96115.63;1813450;79;20925;-67
2022/02/07 04:37:39;;;;;;;5.42;3.60;;;;;;;3.22;72.68;96115.59;1813470;79;21409;-69
2022/02/07 04:40:08;;;;;;;4.78;3.70;;;;;;;3.22;72.74;96111.63;1813500;79;20929;-65
2022/02/07 04:42:36;;;;;;;5.28;3.85;;;;;;;3.24;72.69;96117.41;1813333;78;21197;-68
2022/02/07 04:50:47;;;;;;;6.95;4.62;;;;;;;3.24;72.90;96110.00;1770398;79;20893;-67
2022/02/07 05:03:24;;;;;;;7.50;5.80;;;;;;;3.23;73.26;96097.30;1813451;79;20921;-67
2022/02/07 05:13:49;;;;;;;7.05;5.15;;;;;;;3.16;73.53;96107.47;1778523;80;20915;-69
2022/02/07 05:16:28;;;;;;;6.47;5.03;;;;;;;3.14;73.64;96107.51;1778409;80;20931;-65
2022/02/07 05:18:57;;;;;;;5.72;4.62;;;;;;;3.09;73.84;96101.76;1776064;80;20926;-68
2022/02/07 05:21:35;;;;;;;7.67;4.92;;;;;;;3.06;73.97;96104.20;1760035;80;21117;-65
2022/02/07 05:24:07;;;;;;;6.95;4.50;;;;;;;3.05;74.11;96110.56;1776944;80;20887;-67
2022/02/07 05:26:41;;;;;;;10.40;6.78;;;;;;;3.04;74.27;96109.00;1744716;80;20914;-65
2022/02/07 05:29:15;;;;;;;8.00;5.28;;;;;;;3.04;74.39;96114.30;1774877;80;20922;-67
2022/02/07 05:31:47;;;;;;;6.75;4.37;;;;;;;3.04;74.45;96110.33;1731984;80;21023;-61
2022/02/07 05:34:28;;;;;;;7.78;5.17;;;;;;;3.05;74.47;96118.49;1745372;80;21936;-61
2022/02/07 05:37:15;;;;;;;7.42;5.10;;;;;;;3.05;74.54;96119.28;1778620;80;20855;-65
2022/02/07 05:40:04;;;;;;;5.97;4.90;;;;;;;3.04;74.65;96112.97;1775352;80;21501;-62
2022/02/07 05:42:29;;;;;;;8.18;6.20;;;;;;;3.03;74.78;96124.08;1776580;80;20991;-65
2022/02/07 05:45:01;;;;;;;9.85;6.97;;;;;;;3.02;75.01;96121.70;1748505;80;20879;-64
2022/02/07 05:47:35;;;;;;;7.37;5.20;;;;;;;3.00;75.18;96126.50;1776621;80;21114;-69
2022/02/07 05:50:08;;;;;;;6.17;5.15;;;;;;;3.00;75.54;96129.94;1776291;80;20958;-63
2022/02/07 05:52:38;;;;;;;8.73;5.90;;;;;;;3.01;75.79;96132.05;1775972;80;20919;-68
2022/02/07 05:55:09;;;;;;;7.65;5.37;;;;;;;3.01;76.01;96134.70;1772828;80;20935;-63
2022/02/07 05:57:54;;;;;;;6.87;5.03;;;;;;;3.03;76.25;96137.83;1778780;80;20852;-65
2022/02/07 06:00:33;;;;;;;6.90;5.45;;;;;;;3.03;76.46;96149.73;1774887;80;21184;-64
2022/02/07 06:03:03;;;;;;;7.50;5.72;;;;;;;3.03;76.79;96155.03;1778101;80;20951;-64
2022/02/07 06:05:34;;;;;;;10.82;8.85;;;;;;;3.04;77.06;96152.09;1777954;80;20832;-62
2022/02/07 06:08:04;;;;;;;9.23;8.20;;;;;;;3.04;77.33;96144.71;1777873;80;20915;-65
2022/02/07 06:10:31;;;;;;;8.83;6.70;;;;;;;3.03;77.60;96152.38;1778325;78;20843;-68
2022/02/07 06:12:58;;;;;;;9.48;6.37;;;;;;;3.01;77.88;96147.92;1750085;80;22250;-62
2022/02/07 06:15:25;;;;;;;7.97;6.08;;;;;;;2.99;78.24;96150.07;1778471;80;21509;-66
2022/02/07 06:17:57;;;;;;;8.90;7.28;;;;;;;3.00;78.72;96151.63;1778670;80;21342;-69
2022/02/07 06:20:24;;;;;;;7.75;5.78;;;;;;;3.02;79.13;96150.80;1778256;80;20867;-62
2022/02/07 06:22:52;;;;;;;9.90;7.65;;;;;;;3.02;79.42;96154.23;1778671;80;20895;-68
2022/02/07 06:25:19;;;;;;;11.43;8.13;;;;;;;3.03;79.74;96147.09;1778617;80;21158;-68
2022/02/07 06:27:47;;;;;;;8.68;7.45;;;;;;;3.00;80.00;96149.77;1778426;80;20962;-67
2022/02/07 06:30:15;;;;;;;20.30;13.35;;;;;;;2.97;80.31;96152.22;1778474;80;20958;-66
2022/02/07 06:32:44;;;;;;;13.03;9.58;;;;;;;2.94;80.60;96155.42;1778483;80;20930;-63
2022/02/07 06:35:11;;;;;;;12.13;7.95;;;;;;;2.94;80.87;96158.86;1778544;80;20887;-71
2022/02/07 06:37:40;;;;;;;14.47;11.65;;;;;;;2.94;81.18;96164.68;1778545;80;20926;-67
2022/02/07 06:40:09;;;;;;;16.57;11.57;;;;;;;2.95;81.45;96177.61;1750449;80;20891;-70
2022/02/07 06:42:37;;;;;;;10.85;8.33;;;;;;;2.97;81.67;96179.98;1778614;80;20966;-65
2022/02/07 06:45:05;;;;;;;11.20;8.55;;;;;;;3.01;81.85;96183.63;1778937;80;21383;-66
2022/02/07 06:47:34;;;;;;;10.10;7.37;;;;;;;3.05;82.06;96179.33;1779480;80;20930;-71
2022/02/07 06:50:01;;;;;;;10.23;7.05;;;;;;;3.06;82.29;96178.27;1778775;80;22233;-62
2022/02/07 06:52:28;;;;;;;10.25;7.03;;;;;;;3.03;82.53;96179.62;1750434;80;21454;-69
2022/02/07 06:54:55;;;;;;;18.95;12.50;;;;;;;3.04;82.72;96181.19;1778489;80;21086;-67
2022/02/07 06:57:23;;;;;;;19.73;11.78;;;;;;;3.05;83.00;96185.94;1779718;80;21398;-63
2022/02/07 06:59:50;;;;;;;14.70;9.93;;;;;;;3.06;83.17;96193.58;1778727;80;20895;-70
2022/02/07 07:02:25;;;;;;;17.73;11.43;;;;;;;3.09;83.30;96197.52;1778606;80;21402;-69
2022/02/07 07:04:49;;;;;;;62.50;35.03;;;;;;;3.11;83.42;96204.66;1778083;80;20946;-64
2022/02/07 07:07:18;;;;;;;53.70;30.23;;;;;;;3.13;83.57;96204.59;1776112;80;20979;-67
2022/02/07 07:09:47;;;;;;;24.43;17.17;;;;;;;3.14;83.71;96212.00;1769073;78;21025;-69
2022/02/07 07:12:15;;;;;;;16.12;10.50;;;;;;;3.17;83.84;96208.80;1796760;79;21009;-61
2022/02/07 07:14:50;;;;;;;29.37;17.27;;;;;;;3.22;84.05;96216.66;1799007;78;21114;-64
2022/02/07 07:17:16;;;;;;;16.50;12.13;;;;;;;3.28;84.14;96223.45;1811197;78;20955;-70
2022/02/07 07:19:45;;;;;;;41.70;35.92;;;;;;;3.29;84.24;96221.86;1786522;79;20882;-64
2022/02/07 07:22:15;;;;;;;21.45;16.70;;;;;;;3.31;84.26;96226.85;1788481;79;20965;-69
2022/02/07 07:24:45;;;;;;;31.50;25.85;;;;;;;3.31;84.31;96216.27;1813769;79;20905;-63
2022/02/07 07:27:14;;;;;;;14.33;11.57;;;;;;;3.33;84.37;96218.09;1813567;79;21113;-63
2022/02/07 07:29:45;;;;;;;11.33;7.47;;;;;;;3.35;84.42;96208.00;1802533;79;21404;-68
2022/02/07 07:32:10;;;;;;;14.33;11.50;;;;;;;3.37;84.48;96207.17;1797821;78;20920;-64
2022/02/07 07:34:39;;;;;;;12.85;9.85;;;;;;;3.40;84.49;96217.19;1784043;78;20930;-64
2022/02/07 07:37:16;;;;;;;41.75;24.07;;;;;;;3.44;84.52;96215.00;1798330;78;21398;-71
2022/02/07 07:39:44;;;;;;;38.15;22.73;;;;;;;3.52;84.42;96216.75;1803140;79;21107;-68
2022/02/07 07:42:11;;;;;;;33.08;20.95;;;;;;;3.56;84.32;96219.09;1790136;79;21044;-61
2022/02/07 07:44:40;;;;;;;30.32;19.30;;;;;;;3.59;84.22;96221.94;1790703;79;21041;-65
2022/02/07 07:47:26;;;;;;;30.57;20.15;;;;;;;3.60;84.20;96222.73;1813419;78;21080;-63
2022/02/07 07:50:15;;;;;;;19.27;13.93;;;;;;;3.62;84.10;96214.75;1811261;78;20999;-65
2022/02/07 07:52:58;;;;;;;16.15;10.50;;;;;;;3.67;84.07;96213.88;1801217;79;21048;-66
2022/02/07 07:55:27;;;;;;;21.80;12.80;;;;;;;3.72;83.96;96205.30;1787104;79;21326;-66
2022/02/07 08:03:15;;;;;;;15.63;9.65;;;;;;;3.88;83.61;96206.66;1802586;79;20830;-69
2022/02/07 08:05:49;;;;;;;12.58;8.75;;;;;;;3.94;83.50;96212.11;1789884;79;21727;-61
2022/02/07 08:08:30;;;;;;;12.93;8.50;;;;;;;3.98;83.34;96214.41;1783969;79;20886;-68
2022/02/07 08:11:06;;;;;;;15.53;9.75;;;;;;;4.04;83.09;96206.64;1807308;77;21174;-63
2022/02/07 08:13:33;;;;;;;16.85;12.07;;;;;;;4.11;82.93;96212.34;1749257;80;20861;-66
2022/02/07 08:16:03;;;;;;;14.58;11.60;;;;;;;4.19;82.71;96206.13;1717576;82;20984;-71
2022/02/07 08:18:30;;;;;;;12.23;8.95;;;;;;;4.27;82.52;96208.09;1745464;82;21391;-68
2022/02/07 08:20:59;;;;;;;12.70;9.13;;;;;;;4.36;82.17;96208.45;1724271;82;20924;-63
2022/02/07 08:23:26;;;;;;;12.35;8.25;;;;;;;4.42;81.95;96201.20;1724005;81;21573;-62
2022/02/07 08:25:53;;;;;;;17.25;11.75;;;;;;;4.51;81.63;96206.84;1738204;81;20907;-68
2022/02/07 08:28:19;;;;;;;7.30;6.33;;;;;;;4.55;81.37;96205.70;1733938;81;20965;-70
2022/02/07 08:30:46;;;;;;;10.10;7.92;;;;;;;4.56;81.00;96205.97;1740703;81;21104;-69
2022/02/07 08:33:14;;;;;;;10.13;8.63;;;;;;;4.56;80.79;96205.97;1748214;81;21517;-72
2022/02/07 08:35:41;;;;;;;8.50;6.85;;;;;;;4.60;80.78;96206.94;1759193;79;20939;-63
2022/02/07 08:38:07;;;;;;;10.55;8.70;;;;;;;4.65;80.56;96204.98;1753467;79;21429;-63
2022/02/07 08:40:37;;;;;;;11.15;8.38;;;;;;;4.71;80.41;96203.03;1744877;82;20995;-67
2022/02/07 08:43:04;;;;;;;11.70;8.68;;;;;;;4.76;80.18;96203.70;1745092;82;21363;-64
2022/02/07 08:45:32;;;;;;;13.65;9.05;;;;;;;4.78;80.00;96196.78;1754188;79;21355;-63
2022/02/07 08:47:59;;;;;;;15.55;10.35;;;;;;;4.79;79.93;96197.02;1770034;80;20895;-64
2022/02/07 08:50:27;;;;;;;13.60;9.13;;;;;;;4.80;79.81;96193.30;1756816;79;21027;-63
2022/02/07 08:52:56;;;;;;;14.30;8.25;;;;;;;4.84;79.70;96206.20;1771752;80;20843;-65
2022/02/07 08:55:35;;;;;;;9.93;7.58;;;;;;;4.88;79.46;96213.80;1750364;80;21120;-69
2022/02/07 08:57:57;;;;;;;13.53;8.20;;;;;;;4.91;79.40;96215.88;1797097;79;21051;-63
2022/02/07 09:00:48;;;;;;;14.05;9.68;;;;;;;4.95;79.28;96214.19;1796405;78;20886;-69
2022/02/07 09:03:14;;;;;;;6.75;5.35;;;;;;;5.00;79.18;96208.78;1738196;82;20995;-69
2022/02/07 09:08:09;;;;;;;10.48;7.90;;;;;;;5.13;78.47;96209.85;1735553;82;21640;-67
2022/02/07 09:10:22;;;;;;;10.23;6.85;;;;;;;5.18;78.29;96213.16;1750038;79;21054;-70
2022/02/07 09:12:49;;;;;;;7.15;4.83;;;;;;;5.18;78.16;96201.22;1757726;81;20919;-68
2022/02/07 09:15:39;;;;;;;8.45;6.15;;;;;;;5.21;77.60;96187.89;1747705;81;21015;-65
2022/02/07 09:18:04;;;;;;;10.18;8.10;;;;;;;5.23;77.18;96186.52;1757977;79;21020;-66
2022/02/07 09:20:29;;;;;;;9.95;7.72;;;;;;;5.26;77.18;96202.39;1775557;80;21136;-60
2022/02/07 09:22:58;;;;;;;4.70;3.58;;;;;;;5.29;77.03;96203.92;1763053;80;20890;-63
2022/02/07 09:25:26;;;;;;;3.77;3.02;;;;;;;5.30;76.26;96206.80;1759374;80;32607;-61
2022/02/07 09:27:53;;;;;;;3.47;3.05;;;;;;;5.31;75.96;96213.69;1768036;80;20914;-68
2022/02/07 09:30:20;;;;;;;3.92;3.30;;;;;;;5.36;75.68;96204.30;1788829;80;20986;-69
2022/02/07 09:32:48;;;;;;;3.25;2.92;;;;;;;5.42;75.58;96208.39;1778369;80;21119;-63
2022/02/07 09:35:16;;;;;;;3.77;2.85;;;;;;;5.46;75.00;96205.94;1772709;80;20910;-62
2022/02/07 09:37:43;;;;;;;3.65;2.83;;;;;;;5.48;74.45;96199.23;1789621;80;20911;-66
2022/02/07 09:40:12;;;;;;;3.33;2.65;;;;;;;5.49;74.39;96203.98;1773757;80;21057;-62
2022/02/07 09:42:42;;;;;;;5.15;2.90;;;;;;;5.52;74.13;96192.23;1782232;80;20934;-64
2022/02/07 09:45:18;;;;;;;3.75;2.65;;;;;;;5.57;74.06;96190.00;1758211;81;21063;-68
2022/02/07 09:47:41;;;;;;;3.22;2.55;;;;;;;5.62;74.13;96195.73;1757294;81;20886;-64
2022/02/07 09:50:09;;;;;;;5.08;2.87;;;;;;;5.67;73.76;96194.30;1758592;80;20973;-66
2022/02/07 09:52:35;;;;;;;3.40;2.75;;;;;;;5.66;73.56;96193.50;1776231;80;20918;-62
2022/02/07 09:55:03;;;;;;;3.20;2.90;;;;;;;5.62;73.47;96185.11;1789536;80;21021;-64
2022/02/07 09:57:30;;;;;;;2.90;2.40;;;;;;;5.62;73.54;96174.48;1789656;80;21740;-64
2022/02/07 10:00:04;;;;;;;3.20;2.40;;;;;;;5.61;73.34;96179.55;1789555;80;21450;-70
2022/02/07 10:02:36;;;;;;;2.87;2.20;;;;;;;5.59;73.26;96177.73;1787914;80;20965;-66
2022/02/07 10:05:02;;;;;;;3.05;2.30;;;;;;;5.59;73.34;96172.42;1774236;80;21441;-67
2022/02/07 10:07:53;;;;;;;2.87;2.47;;;;;;;5.58;73.14;96177.52;1757830;81;20985;-64
2022/02/07 10:10:27;;;;;;;5.28;3.05;;;;;;;5.57;73.18;96190.54;1713170;81;21189;-69
2022/02/07 10:13:12;;;;;;;3.75;2.70;;;;;;;5.54;73.12;96194.05;1798579;78;21495;-71
2022/02/07 10:15:42;;;;;;;22.65;21.27;;;;;;;5.61;73.19;96190.17;1815433;78;20944;-63
2022/02/07 10:46:08;;;;;;;4.17;2.98;;;;;;;5.79;72.71;96227.75;1758500;80;20883;-68
2022/02/07 10:48:48;;;;;;;8.85;6.30;;;;;;;5.83;72.72;96232.16;1757473;80;20886;-64
2022/02/07 10:51:22;;;;;;;5.58;4.17;;;;;;;5.92;72.66;96229.58;1779481;80;21179;-64
2022/02/07 10:53:59;;;;;;;3.37;3.05;;;;;;;5.99;72.42;96224.62;1774376;80;21441;-69
2022/02/07 10:56:37;;;;;;;5.58;3.33;;;;;;;6.04;72.11;96222.64;1769322;80;21001;-68
2022/02/07 10:59:07;;;;;;;5.20;3.30;;;;;;;6.06;72.15;96227.64;1785623;80;20934;-66
2022/02/07 11:04:10;;;;;;;4.55;3.22;;;;;;;6.13;72.05;96233.31;1754689;81;21654;-65
2022/02/07 11:06:36;;;;;;;3.05;2.75;;;;;;;6.10;72.21;96232.61;1762133;80;20843;-64
2022/02/07 11:09:10;;;;;;;3.87;2.47;;;;;;;6.02;72.46;96239.97;1780230;80;20951;-67
2022/02/07 11:11:47;;;;;;;3.60;3.00;;;;;;;5.99;72.85;96241.89;1775584;80;21524;-69
2022/02/07 11:14:32;;;;;;;9.88;6.28;;;;;;;5.92;73.17;96244.19;1750390;79;20903;-62
2022/02/07 11:17:08;;;;;;;4.60;3.80;;;;;;;5.86;73.58;96244.08;1761913;80;21195;-67
2022/02/07 11:20:01;;;;;;;3.27;2.87;;;;;;;5.83;73.83;96236.67;1746155;80;20919;-64
2022/02/07 11:25:27;;;;;;;3.52;2.90;;;;;;;5.74;74.43;96243.80;1772248;81;20891;-68
2022/02/07 11:27:54;;;;;;;2.40;2.02;;;;;;;5.78;74.64;96246.09;1769445;80;20990;-63
2022/02/07 11:30:48;;;;;;;2.55;2.20;;;;;;;5.74;74.81;96249.12;1770079;81;21195;-69
2022/02/07 11:33:52;;;;;;;3.00;2.40;;;;;;;5.69;75.09;96250.55;1768535;81;21021;-63
2022/02/07 11:36:36;;;;;;;3.90;3.02;;;;;;;5.60;75.28;96243.86;1748065;79;21440;-67
2022/02/07 11:39:17;;;;;;;2.83;2.55;;;;;;;5.60;75.54;96241.73;1751785;79;21136;-62
2022/02/07 11:42:05;;;;;;;3.52;2.52;;;;;;;5.60;75.74;96243.06;1760431;79;21060;-67
2022/02/07 11:44:46;;;;;;;3.27;2.67;;;;;;;5.62;76.22;96243.01;1749185;81;21721;-69
2022/02/07 11:47:26;;;;;;;6.33;3.27;;;;;;;5.62;76.16;96231.59;1767236;81;21069;-67
2022/02/07 11:49:56;;;;;;;4.75;4.20;;;;;;;5.66;76.43;96240.52;1751033;81;21372;-64
2022/02/07 11:52:47;;;;;;;4.20;3.80;;;;;;;5.69;76.38;96242.59;1748799;81;21411;-67
2022/02/07 11:55:27;;;;;;;3.10;2.67;;;;;;;5.69;76.48;96234.62;1722640;82;21042;-65
2022/02/07 11:58:06;;;;;;;3.83;2.90;;;;;;;5.72;76.49;96234.02;1726738;82;21132;-63
2022/02/07 12:00:30;;;;;;;4.65;3.05;;;;;;;5.66;76.49;96230.69;1740087;82;21558;-63
2022/02/07 12:03:03;;;;;;;3.25;2.95;;;;;;;5.59;76.65;96239.62;1770327;81;20998;-71
2022/02/07 12:05:31;;;;;;;3.40;2.98;;;;;;;5.52;76.79;96240.58;1770063;80;20959;-68
2022/02/07 12:08:07;;;;;;;4.03;3.22;;;;;;;5.45;77.06;96242.31;1770891;81;21062;-70
2022/02/07 12:10:41;;;;;;;4.47;4.08;;;;;;;5.43;77.46;96245.81;1770650;81;21681;-65
2022/02/07 12:13:33;;;;;;;5.50;3.58;;;;;;;5.39;77.55;96247.48;1770233;80;21097;-65
2022/02/07 12:16:07;;;;;;;4.03;3.47;;;;;;;5.33;77.64;96251.87;1770868;81;21042;-72
2022/02/07 12:18:34;;;;;;;6.28;4.47;;;;;;;5.21;78.07;96256.38;1768408;80;20958;-68
2022/02/07 12:21:16;;;;;;;5.45;4.70;;;;;;;5.12;78.49;96259.48;1771621;81;21101;-69
2022/02/07 12:23:44;;;;;;;5.40;4.35;;;;;;;5.04;78.90;96259.41;1772059;81;21674;-66
2022/02/07 12:26:15;;;;;;;4.37;3.20;;;;;;;4.97;79.34;96265.09;1752463;81;20871;-66
2022/02/07 12:28:45;;;;;;;89.85;41.40;;;;;;;4.92;79.80;96265.21;1772397;81;20864;-64
2022/02/07 12:31:18;;;;;;;4.83;3.70;;;;;;;4.90;79.99;96260.72;1772252;80;20951;-64
2022/02/07 12:34:00;;;;;;;63.70;7.50;;;;;;;4.87;80.31;96260.00;1772136;81;20935;-69
2022/02/07 12:36:31;;;;;;;11.43;10.23;;;;;;;4.87;80.58;96260.00;1772188;81;21137;-68
2022/02/07 12:38:59;;;;;;;6.67;4.62;;;;;;;4.82;80.71;96257.44;1771990;81;20915;-63
2022/02/07 12:41:29;;;;;;;7.17;5.58;;;;;;;4.76;80.91;96258.60;1756361;79;21097;-62
2022/02/07 12:43:57;;;;;;;7.83;5.03;;;;;;;4.73;81.12;96261.30;1767989;81;20927;-68
2022/02/07 12:46:27;;;;;;;7.62;4.90;;;;;;;4.73;81.47;96265.28;1759055;79;21009;-69
2022/02/07 12:48:59;;;;;;;4.25;3.77;;;;;;;4.75;81.66;96277.73;1765578;79;21077;-65
2022/02/07 12:51:42;;;;;;;5.05;3.83;;;;;;;4.79;81.79;96276.59;1761075;79;20982;-68
2022/02/07 12:54:03;;;;;;;4.90;4.33;;;;;;;4.80;81.93;96279.50;1761348;79;21438;-69
2022/02/07 12:56:32;;;;;;;6.00;4.20;;;;;;;4.70;82.07;96282.33;1755509;81;20955;-64
2022/02/07 12:59:01;;;;;;;75.75;11.12;;;;;;;4.62;82.37;96284.33;1743882;79;20950;-67
2022/02/07 13:01:31;;;;;;;5.53;3.62;;;;;;;4.51;82.70;96281.62;1761396;81;21895;-66
2022/02/07 13:04:03;;;;;;;6.10;4.60;;;;;;;4.41;83.14;96283.91;1761806;79;20931;-66
2022/02/07 13:06:39;;;;;;;4.95;4.03;;;;;;;4.38;83.64;96282.39;1764985;81;20963;-68
2022/02/07 13:09:20;;;;;;;5.53;4.28;;;;;;;4.35;84.00;96277.13;1761381;81;20982;-63
2022/02/07 13:11:50;;;;;;;6.42;4.92;;;;;;;4.32;84.25;96275.59;1740826;81;21047;-65
2022/02/07 13:14:17;;;;;;;425.85;48.02;;;;;;;4.32;84.53;96285.66;1743350;79;21194;-65
2022/02/07 13:16:45;;;;;;;6.22;4.12;;;;;;;4.33;84.73;96283.80;1748005;79;20887;-69
2022/02/07 13:19:17;;;;;;;5.65;4.40;;;;;;;4.32;84.70;96288.31;1745882;81;21492;-66
2022/02/07 13:21:46;;;;;;;4.90;3.92;;;;;;;4.27;84.70;96298.20;1756083;79;21174;-61
2022/02/07 13:24:17;;;;;;;4.70;4.15;;;;;;;4.23;84.65;96305.95;1731564;82;21046;-64
2022/02/07 13:26:50;;;;;;;4.12;3.72;;;;;;;4.18;84.52;96308.69;1770124;81;21101;-62
2022/02/07 13:29:23;;;;;;;5.53;4.22;;;;;;;4.14;84.55;96316.41;1797092;79;21586;-71
2022/02/07 13:31:55;;;;;;;6.75;4.80;;;;;;;4.03;84.69;96322.95;1803686;79;20878;-70
2022/02/07 13:34:25;;;;;;;5.15;4.12;;;;;;;3.96;84.88;96327.83;1803241;79;20920;-61
2022/02/07 13:36:52;;;;;;;5.75;4.60;;;;;;;3.88;85.22;96330.35;1725662;82;21059;-64
2022/02/07 13:39:20;;;;;;;6.20;5.22;;;;;;;3.76;85.43;96329.46;1723027;82;21107;-57
2022/02/07 13:42:05;;;;;;;5.70;4.62;;;;;;;3.61;85.71;96333.63;1757819;79;20966;-65
2022/02/07 13:44:44;;;;;;;6.10;4.78;;;;;;;3.51;85.92;96339.05;1750400;79;20907;-68
2022/02/07 13:47:11;;;;;;;5.42;4.47;;;;;;;3.35;86.10;96349.58;1757088;81;20927;-62
2022/02/07 13:50:09;;;;;;;6.55;4.75;;;;;;;3.26;86.29;96352.61;1770832;81;20958;-61
2022/02/07 13:52:40;;;;;;;5.62;5.12;;;;;;;3.13;86.43;96358.59;1770325;81;21130;-63
2022/02/07 13:55:30;;;;;;;5.35;4.83;;;;;;;3.02;86.57;96371.66;1769917;81;21037;-68
2022/02/07 13:58:07;;;;;;;6.17;5.55;;;;;;;2.93;86.63;96375.46;1753122;81;20978;-66
2022/02/07 14:00:51;;;;;;;6.87;5.90;;;;;;;2.81;86.81;96380.34;1739942;82;20934;-64
2022/02/07 14:03:30;;;;;;;6.50;5.72;;;;;;;2.70;87.26;96384.16;1782330;80;21070;-60
2022/02/07 14:06:06;;;;;;;6.55;5.20;;;;;;;2.63;87.52;96382.37;1782168;80;20943;-63
2022/02/07 14:08:46;;;;;;;6.00;5.40;;;;;;;2.58;87.84;96381.88;1797165;79;21380;-69
2022/02/07 14:11:21;;;;;;;7.83;4.90;;;;;;;2.56;88.07;96385.87;1728506;83;20885;-72
2022/02/07 14:13:50;;;;;;;;;;;;;;;2.54;88.29;96391.41;1739657;82;20932;-67
2022/02/07 14:16:18;;;;;;;7.53;5.30;;;;;;;2.54;88.45;96400.66;1768795;81;20132;-69